createdAt,value
2019-04-23T00:00:03.376Z,1.53
2019-04-23T00:02:39.318Z,1.53
2019-04-23T00:05:08.157Z,1.87
2019-04-23T00:07:55.933Z,1.43
2019-04-23T00:18:10.155Z,1.53
2019-04-23T00:20:25.666Z,1.80
2019-04-23T00:26:00.345Z,1.40
2019-04-23T00:28:35.911Z,1.53
2019-04-23T00:31:13.354Z,1.70
2019-04-23T00:33:40.917Z,1.60
2019-04-23T00:36:24.220Z,1.70
2019-04-23T00:39:06.313Z,1.50
2019-04-23T00:41:24.957Z,1.70
2019-04-23T00:44:01.959Z,1.83
2019-04-23T00:46:28.884Z,1.60
2019-04-23T00:49:07.437Z,1.57
2019-04-23T00:51:36.917Z,1.63
2019-04-23T00:54:14.864Z,1.90
2019-04-23T00:59:12.599Z,1.60
2019-04-23T01:01:49.702Z,1.90
2019-04-23T01:04:22.834Z,1.77
2019-04-23T01:07:00.995Z,1.80
2019-04-23T01:09:35.167Z,1.57
2019-04-23T01:11:57.898Z,1.87
2019-04-23T01:14:34.493Z,1.67
2019-04-23T01:17:11.424Z,1.77
2019-04-23T01:22:06.414Z,1.90
2019-04-23T01:24:57.771Z,2.03
2019-04-23T01:28:00.775Z,1.60
2019-04-23T01:30:28.150Z,1.47
2019-04-23T01:33:03.329Z,1.80
2019-04-23T01:35:36.337Z,1.83
2019-04-23T01:38:11.152Z,1.63
2019-04-23T01:40:43.401Z,1.90
2019-04-23T01:43:16.319Z,1.60
2019-04-23T01:45:42.920Z,1.83
2019-04-23T01:48:19.980Z,2.00
2019-04-23T01:50:56.065Z,2.07
2019-04-23T01:53:36.958Z,1.90
2019-04-23T01:56:20.233Z,2.13
2019-04-23T02:01:07.353Z,2.10
2019-04-23T02:03:42.594Z,1.93
2019-04-23T02:06:14.880Z,1.97
2019-04-23T02:08:52.479Z,2.17
2019-04-23T02:11:19.969Z,1.97
2019-04-23T02:14:05.358Z,2.00
2019-04-23T02:16:32.704Z,2.07
2019-04-23T02:19:03.159Z,2.17
2019-04-23T02:21:38.421Z,2.10
2019-04-23T02:24:06.418Z,2.03
2019-04-23T02:29:28.658Z,2.00
2019-04-23T02:31:57.705Z,2.10
2019-04-23T02:34:43.276Z,2.23
2019-04-23T02:39:39.683Z,2.23
2019-04-23T02:42:28.566Z,1.90
2019-04-23T02:44:32.010Z,2.10
2019-04-23T02:49:55.291Z,1.83
2019-04-23T02:52:16.256Z,1.90
2019-04-23T02:54:50.413Z,2.20
2019-04-23T02:57:20.444Z,2.67
2019-04-23T03:00:12.098Z,2.70
2019-04-23T03:07:40.191Z,2.07
2019-04-23T03:10:24.576Z,2.00
2019-04-23T03:12:43.379Z,1.90
2019-04-23T03:15:39.452Z,2.00
2019-04-23T03:18:31.491Z,2.13
2019-04-23T03:26:25.217Z,2.23
2019-04-23T03:29:01.878Z,2.07
2019-04-23T03:35:16.122Z,2.20
2019-04-23T03:37:03.964Z,2.40
2019-04-23T03:38:51.689Z,2.00
2019-04-23T03:44:09.322Z,2.07
2019-04-23T03:49:21.232Z,1.93
2019-04-23T03:51:56.266Z,2.63
2019-04-23T03:54:36.128Z,2.10
2019-04-23T03:59:37.043Z,2.60
2019-04-23T04:02:09.015Z,2.13
2019-04-23T04:04:32.953Z,2.10
2019-04-23T04:09:49.634Z,2.20
2019-04-23T04:12:21.412Z,2.10
2019-04-23T04:14:54.491Z,2.10
2019-04-23T04:17:28.259Z,2.20
2019-04-23T04:20:10.145Z,1.90
2019-04-23T04:23:00.069Z,2.20
2019-04-23T04:25:15.836Z,2.80
2019-04-23T04:27:58.143Z,2.10
2019-04-23T04:33:02.351Z,2.23
2019-04-23T04:38:16.396Z,2.20
2019-04-23T04:40:31.363Z,2.30
2019-04-23T04:43:08.498Z,2.17
2019-04-23T04:45:49.871Z,2.70
2019-04-23T04:48:00.690Z,2.27
2019-04-23T04:50:35.604Z,2.30
2019-04-23T04:53:12.454Z,2.13
2019-04-23T04:58:13.028Z,2.47
2019-04-23T05:06:12.736Z,2.10
2019-04-23T05:08:28.974Z,2.47
2019-04-23T05:11:21.514Z,2.53
2019-04-23T05:16:07.711Z,2.40
2019-04-23T05:21:44.194Z,2.57
2019-04-23T05:26:27.214Z,2.40
2019-04-23T05:29:11.216Z,2.40
2019-04-23T05:31:32.995Z,2.37
2019-04-23T05:34:08.033Z,2.23
2019-04-23T05:39:31.304Z,2.90
2019-04-23T05:41:55.890Z,2.43
2019-04-23T05:44:42.956Z,2.50
2019-04-23T05:47:07.315Z,2.73
2019-04-23T05:49:31.269Z,2.70
2019-04-23T05:52:07.990Z,2.30
2019-04-23T05:54:43.339Z,2.60
2019-04-23T05:57:20.717Z,2.50
2019-04-23T05:59:51.778Z,2.97
2019-04-23T06:02:20.401Z,3.00
2019-04-23T06:04:49.965Z,2.70
2019-04-23T06:07:42.718Z,2.80
2019-04-23T06:12:33.555Z,2.80
2019-04-23T06:15:05.239Z,2.90
2019-04-23T06:17:41.132Z,2.90
2019-04-23T06:20:20.075Z,2.90
2019-04-23T06:25:31.622Z,3.57
2019-04-23T06:30:27.853Z,2.57
2019-04-23T06:32:51.432Z,3.10
2019-04-23T06:35:34.337Z,2.90
2019-04-23T06:40:36.488Z,3.40
2019-04-23T06:43:24.100Z,2.73
2019-04-23T06:45:49.344Z,3.07
2019-04-23T06:48:32.077Z,3.23
2019-04-23T06:51:09.317Z,3.20
2019-04-23T06:53:29.301Z,2.97
2019-04-23T06:56:10.693Z,3.03
2019-04-23T06:58:45.733Z,3.90
2019-04-23T07:01:13.297Z,3.77
2019-04-23T07:03:52.224Z,3.17
2019-04-23T07:06:26.626Z,3.20
2019-04-23T07:11:28.697Z,3.00
2019-04-23T07:13:55.687Z,3.03
2019-04-23T07:16:27.689Z,3.40
2019-04-23T07:19:12.659Z,3.13
2019-04-23T07:21:35.622Z,3.60
2019-04-23T07:24:11.278Z,3.63
2019-04-23T07:26:39.008Z,3.60
2019-04-23T07:29:15.891Z,3.97
2019-04-23T07:31:48.288Z,3.70
2019-04-23T07:34:18.858Z,3.73
2019-04-23T07:36:55.082Z,3.77
2019-04-23T07:54:52.660Z,3.93
2019-04-23T07:57:24.715Z,4.23
2019-04-23T07:59:56.185Z,3.60
2019-04-23T08:02:35.845Z,3.67
2019-04-23T08:10:09.027Z,3.70
2019-04-23T08:12:47.002Z,3.33
2019-04-23T08:15:21.341Z,3.33
2019-04-23T08:17:56.103Z,4.17
2019-04-23T08:20:24.663Z,3.93
2019-04-23T08:23:03.901Z,3.90
2019-04-23T08:26:02.467Z,4.00
2019-04-23T08:28:41.741Z,3.87
2019-04-23T08:31:03.607Z,3.90
2019-04-23T08:33:42.273Z,3.83
2019-04-23T08:36:16.313Z,3.73
2019-04-23T08:38:50.584Z,4.13
2019-04-23T08:46:52.029Z,4.70
2019-04-23T08:49:12.790Z,4.23
2019-04-23T08:54:33.854Z,4.90
2019-04-23T08:56:55.162Z,4.67
2019-04-23T08:59:36.826Z,5.17
2019-04-23T09:02:03.647Z,4.17
2019-04-23T09:04:30.936Z,4.63
2019-04-23T09:07:04.385Z,5.13
2019-04-23T09:09:34.690Z,4.73
2019-04-23T09:12:14.730Z,5.00
2019-04-23T09:14:38.276Z,4.73
2019-04-23T09:17:17.291Z,4.47
2019-04-23T09:22:22.900Z,5.73
2019-04-23T09:30:00.839Z,5.93
2019-04-23T09:32:30.261Z,6.03
2019-04-23T09:38:11.505Z,5.70
2019-04-23T09:41:20.018Z,5.77
2019-04-23T09:47:12.868Z,5.60
2019-04-23T09:52:14.728Z,5.57
2019-04-23T09:54:51.176Z,6.17
2019-04-23T09:57:10.885Z,6.27
2019-04-23T09:59:49.035Z,5.77
2019-04-23T10:02:17.533Z,6.13
2019-04-23T10:04:44.829Z,5.87
2019-04-23T10:07:15.291Z,5.87
2019-04-23T10:09:34.122Z,6.00
2019-04-23T10:12:07.213Z,5.53
2019-04-23T10:14:38.693Z,6.13
2019-04-23T10:17:10.355Z,5.87
2019-04-23T10:19:42.615Z,5.93
2019-04-23T10:22:13.419Z,6.03
2019-04-23T10:24:45.490Z,6.10
2019-04-23T10:27:17.017Z,6.23
2019-04-23T10:29:48.010Z,6.20
2019-04-23T10:32:19.925Z,6.03
2019-04-23T10:35:03.597Z,6.10
2019-04-23T10:37:34.267Z,6.13
2019-04-23T10:40:01.207Z,6.47
2019-04-23T10:42:32.035Z,7.70
2019-04-23T10:45:37.019Z,8.10
2019-04-23T10:51:24.738Z,6.70
2019-04-23T10:54:23.338Z,6.17
2019-04-23T10:59:44.627Z,6.40
2019-04-23T11:05:06.213Z,6.10
2019-04-23T11:07:32.534Z,6.33
2019-04-23T11:13:11.335Z,6.57
2019-04-23T11:17:59.633Z,6.23
2019-04-23T11:23:15.171Z,6.03
2019-04-23T11:25:56.101Z,7.47
2019-04-23T11:28:26.019Z,6.47
2019-04-23T11:31:04.450Z,6.10
2019-04-23T11:36:33.430Z,6.80
2019-04-23T11:38:12.134Z,6.63
2019-04-23T11:38:49.008Z,6.33
2019-04-23T11:41:17.709Z,6.87
2019-04-23T11:43:39.542Z,7.00
2019-04-23T11:49:13.573Z,6.90
2019-04-23T11:53:47.689Z,7.87
2019-04-23T11:56:46.077Z,4.70
2019-04-23T11:58:52.880Z,7.40
2019-04-23T12:01:52.170Z,6.80
2019-04-23T12:04:35.003Z,6.30
2019-04-23T12:07:22.841Z,6.00
2019-04-23T12:12:44.829Z,6.20
2019-04-23T12:15:19.540Z,6.23
2019-04-23T12:20:28.121Z,6.30
2019-04-23T12:23:07.525Z,6.53
2019-04-23T12:27:47.042Z,6.67
2019-04-23T12:35:34.705Z,6.57
2019-04-23T12:38:14.989Z,6.97
2019-04-23T12:40:45.687Z,6.90
2019-04-23T12:43:18.958Z,7.10
2019-04-23T12:45:46.905Z,6.57
2019-04-23T12:48:35.001Z,6.20
2019-04-23T12:53:33.616Z,6.70
2019-04-23T12:56:12.895Z,6.50
2019-04-23T12:58:35.790Z,7.13
2019-04-23T13:01:16.364Z,7.40
2019-04-23T13:03:59.423Z,7.03
2019-04-23T13:06:20.659Z,7.13
2019-04-23T13:08:53.806Z,6.43
2019-04-23T13:11:33.178Z,6.70
2019-04-23T13:13:59.567Z,7.83
2019-04-23T13:16:53.670Z,7.53
2019-04-23T13:19:14.730Z,7.80
2019-04-23T13:24:30.726Z,7.13
2019-04-23T13:26:56.971Z,6.97
2019-04-23T13:29:38.190Z,7.87
2019-04-23T13:32:05.423Z,7.83
2019-04-23T13:34:41.638Z,7.10
2019-04-23T13:37:15.239Z,8.03
2019-04-23T13:39:50.283Z,7.47
2019-04-23T13:42:24.323Z,7.60
2019-04-23T13:44:48.445Z,7.60
2019-04-23T13:47:32.000Z,7.00
2019-04-23T13:49:57.134Z,6.93
2019-04-23T13:52:51.663Z,8.60
2019-04-23T13:57:57.408Z,6.97
2019-04-23T14:00:06.560Z,7.10
2019-04-23T14:02:42.731Z,7.60
2019-04-23T14:05:28.157Z,8.00
2019-04-23T14:08:16.495Z,7.73
2019-04-23T14:10:40.164Z,7.37
2019-04-23T14:15:53.951Z,7.10
2019-04-23T14:18:43.175Z,7.37
2019-04-23T14:20:50.540Z,7.10
2019-04-23T14:23:39.792Z,6.90
2019-04-23T14:26:11.461Z,6.90
2019-04-23T14:28:37.384Z,6.80
2019-04-23T14:31:09.304Z,6.80
2019-04-23T14:36:07.765Z,6.77
2019-04-23T14:38:43.751Z,6.40
2019-04-23T14:43:57.998Z,6.00
2019-04-23T14:48:57.579Z,6.87
2019-04-23T14:51:38.857Z,6.50
2019-04-23T14:54:12.921Z,6.70
2019-04-23T14:56:44.562Z,7.07
2019-04-23T14:59:10.705Z,7.70
2019-04-23T15:01:49.778Z,7.43
2019-04-23T15:04:28.904Z,7.50
2019-04-23T15:09:37.197Z,7.60
2019-04-23T15:12:25.965Z,7.30
2019-04-23T15:14:52.960Z,7.77
2019-04-23T15:17:16.598Z,7.57
2019-04-23T15:19:55.291Z,6.73
2019-04-23T15:22:23.238Z,7.13
2019-04-23T15:25:03.764Z,7.13
2019-04-23T15:28:03.513Z,7.00
2019-04-23T15:29:52.596Z,6.43
2019-04-23T15:32:44.552Z,7.60
2019-04-23T15:35:25.346Z,7.43
2019-04-23T15:40:23.607Z,7.27
2019-04-23T15:43:04.269Z,6.50
2019-04-23T15:45:28.496Z,6.60
2019-04-23T15:48:04.979Z,6.60
2019-04-23T15:50:43.615Z,6.83
2019-04-23T15:53:07.846Z,7.20
2019-04-23T15:55:49.254Z,6.60
2019-04-23T15:58:29.996Z,6.80
2019-04-23T16:01:22.266Z,6.30
2019-04-23T16:03:21.703Z,6.73
2019-04-23T16:05:53.091Z,5.70
2019-04-23T16:09:06.381Z,6.50
2019-04-23T16:14:22.389Z,6.47
2019-04-23T16:16:54.391Z,6.83
2019-04-23T16:20:05.994Z,7.13
2019-04-23T16:25:08.085Z,6.53
2019-04-23T16:27:35.028Z,6.60
2019-04-23T16:30:17.809Z,5.70
2019-04-23T16:33:03.706Z,6.10
2019-04-23T16:35:51.715Z,6.40
2019-04-23T16:41:09.534Z,6.17
2019-04-23T16:43:23.019Z,6.80
2019-04-23T16:48:43.497Z,6.23
2019-04-23T16:56:11.521Z,5.63
2019-04-23T16:59:00.064Z,6.47
2019-04-23T17:03:46.629Z,7.10
2019-04-23T17:06:15.830Z,6.67
2019-04-23T17:14:02.743Z,8.60
2019-04-23T17:16:34.717Z,6.43
2019-04-23T17:19:09.313Z,6.57
2019-04-23T17:21:38.479Z,6.73
2019-04-23T17:24:14.534Z,6.67
2019-04-23T17:26:39.312Z,6.47
2019-04-23T17:29:20.341Z,6.67
2019-04-23T17:31:59.113Z,6.70
2019-04-23T17:34:30.191Z,7.07
2019-04-23T17:37:07.034Z,7.30
2019-04-23T17:40:04.552Z,6.83
2019-04-23T17:43:00.248Z,6.33
2019-04-23T17:47:58.989Z,6.50
2019-04-23T17:50:43.979Z,6.53
2019-04-23T17:55:57.096Z,7.10
2019-04-23T17:58:25.243Z,6.33
2019-04-23T18:03:41.937Z,6.80
2019-04-23T18:06:32.146Z,6.77
2019-04-23T18:08:41.742Z,6.00
2019-04-23T18:13:50.492Z,6.97
2019-04-23T18:16:30.726Z,7.00
2019-04-23T18:19:07.772Z,7.33
2019-04-23T18:38:14.612Z,7.00
2019-04-23T18:40:28.672Z,7.40
2019-04-23T18:43:04.411Z,7.10
2019-04-23T18:45:42.873Z,7.30
2019-04-23T18:48:34.426Z,6.67
2019-04-23T18:51:00.701Z,7.50
2019-04-23T18:53:40.664Z,7.17
2019-04-23T18:56:06.673Z,7.27
2019-04-23T18:58:49.720Z,7.17
2019-04-23T19:01:10.754Z,7.10
2019-04-23T19:07:05.394Z,7.60
2019-04-23T19:10:18.377Z,7.43
2019-04-23T19:13:02.037Z,7.73
2019-04-23T19:15:38.038Z,6.73
2019-04-23T19:20:51.765Z,7.10
2019-04-23T19:25:43.997Z,6.93
2019-04-23T19:31:06.154Z,7.23
2019-04-23T19:36:17.612Z,7.10
2019-04-23T19:38:49.688Z,7.53
2019-04-23T19:41:21.296Z,7.83
2019-04-23T19:43:58.066Z,7.87
2019-04-23T19:46:35.004Z,7.73
2019-04-23T19:49:03.229Z,8.50
2019-04-23T19:51:33.747Z,7.67
2019-04-23T19:54:16.734Z,7.33
2019-04-23T19:56:45.168Z,7.77
2019-04-23T19:59:01.815Z,7.60
2019-04-23T20:01:53.328Z,7.77
2019-04-23T20:04:20.469Z,7.87
2019-04-23T20:07:08.466Z,8.03
2019-04-23T20:09:37.401Z,7.70
2019-04-23T20:11:54.718Z,8.13
2019-04-23T20:17:21.384Z,7.90
2019-04-23T20:19:37.629Z,8.47
2019-04-23T20:22:05.766Z,8.67
2019-04-23T20:24:47.288Z,8.00
2019-04-23T20:27:14.096Z,8.70
2019-04-23T20:35:10.950Z,7.50
2019-04-23T20:38:19.046Z,7.87
2019-04-23T20:40:31.227Z,7.70
2019-04-23T20:43:00.372Z,7.50
2019-04-23T20:45:27.555Z,8.37
2019-04-23T20:48:01.963Z,8.20
2019-04-23T20:50:33.786Z,8.27
2019-04-23T20:53:13.548Z,8.80
2019-04-23T20:56:01.822Z,8.27
2019-04-23T20:58:38.927Z,8.53
2019-04-23T21:01:18.651Z,8.20
2019-04-23T21:03:52.000Z,8.53
2019-04-23T21:06:18.869Z,8.77
2019-04-23T21:09:10.833Z,8.07
2019-04-23T21:11:24.941Z,9.17
2019-04-23T21:14:13.433Z,8.97
2019-04-23T21:16:31.110Z,9.07
2019-04-23T21:18:55.688Z,9.43
2019-04-23T21:21:39.734Z,9.30
2019-04-23T21:24:03.954Z,9.07
2019-04-23T21:26:45.985Z,8.83
2019-04-23T21:29:13.153Z,8.63
2019-04-23T21:31:47.698Z,9.17
2019-04-23T21:34:24.980Z,9.40
2019-04-23T21:36:58.383Z,9.27
2019-04-23T21:40:04.530Z,8.83
2019-04-23T21:42:41.221Z,9.17
2019-04-23T21:45:06.422Z,9.73
2019-04-23T21:47:46.211Z,9.27
2019-04-23T21:50:23.000Z,9.73
2019-04-23T21:52:48.963Z,10.30
2019-04-23T21:55:26.211Z,10.27
2019-04-23T21:58:07.261Z,10.27
2019-04-23T22:00:24.282Z,10.03
2019-04-23T22:03:06.715Z,10.30
2019-04-23T22:05:32.740Z,10.47
2019-04-23T22:10:31.844Z,9.93
2019-04-23T22:16:00.448Z,10.87
2019-04-23T22:18:14.574Z,10.60
2019-04-23T22:20:55.886Z,11.10
2019-04-23T22:23:18.548Z,10.70
2019-04-23T22:25:58.212Z,11.40
2019-04-23T22:28:26.882Z,10.93
2019-04-23T22:31:03.977Z,10.40
2019-04-23T22:33:39.345Z,10.67
2019-04-23T22:36:09.314Z,10.43
2019-04-23T22:38:35.937Z,10.50
2019-04-23T22:41:09.175Z,10.90
2019-04-23T22:43:55.674Z,10.57
2019-04-23T22:46:20.825Z,10.40
2019-04-23T22:49:17.664Z,11.13
2019-04-23T22:51:46.264Z,10.60
2019-04-23T22:54:09.505Z,11.17
2019-04-23T22:56:48.709Z,11.30
2019-04-23T22:59:38.471Z,10.70
2019-04-23T23:01:55.702Z,11.37
2019-04-23T23:04:33.418Z,11.00
2019-04-23T23:07:07.681Z,11.37
2019-04-23T23:09:40.640Z,10.70
2019-04-23T23:12:02.681Z,10.77
2019-04-23T23:14:35.444Z,11.60
2019-04-23T23:17:12.428Z,10.53
2019-04-23T23:19:49.274Z,10.90
2019-04-23T23:22:21.579Z,11.13
2019-04-23T23:24:57.919Z,10.83
2019-04-23T23:27:19.693Z,11.97
2019-04-23T23:37:29.995Z,11.90
2019-04-23T23:40:17.067Z,11.40
2019-04-23T23:42:48.796Z,11.23
2019-04-23T23:45:21.780Z,11.87
2019-04-23T23:47:55.214Z,11.70
2019-04-23T23:50:34.938Z,11.53
2019-04-23T23:52:56.998Z,11.63
2019-04-23T23:55:21.239Z,12.37
2019-04-23T23:58:11.053Z,12.10
